createdAt,value
2022-11-04T00:02:10.554Z,11.43
2022-11-04T00:04:38.138Z,10.93
2022-11-04T00:07:25.868Z,9.48
2022-11-04T00:09:53.546Z,10.50
2022-11-04T00:12:27.486Z,9.63
2022-11-04T00:15:15.147Z,8.13
2022-11-04T00:17:42.896Z,7.82
2022-11-04T00:20:29.234Z,10.15
2022-11-04T00:23:16.599Z,8.43
2022-11-04T00:26:02.860Z,7.32
2022-11-04T00:28:42.864Z,8.07
2022-11-04T00:31:29.442Z,8.88
2022-11-04T00:33:58.833Z,13.27
2022-11-04T00:36:26.813Z,7.50
2022-11-04T00:38:54.437Z,7.60
2022-11-04T00:41:29.043Z,7.25
2022-11-04T00:44:01.939Z,7.30
2022-11-04T00:46:31.685Z,7.82
2022-11-04T00:48:59.799Z,6.88
2022-11-04T00:51:28.207Z,5.20
2022-11-04T00:53:58.963Z,6.50
2022-11-04T00:56:28.021Z,11.55
2022-11-04T00:58:55.673Z,8.63
2022-11-04T01:01:23.400Z,5.93
2022-11-04T01:03:53.230Z,9.43
2022-11-04T01:06:24.217Z,4.82
2022-11-04T01:09:04.590Z,5.35
2022-11-04T01:11:32.499Z,5.63
2022-11-04T01:14:00.287Z,5.60
2022-11-04T01:16:29.822Z,4.38
2022-11-04T01:18:58.059Z,5.75
2022-11-04T01:21:25.668Z,5.15
2022-11-04T01:23:53.510Z,5.50
2022-11-04T01:26:23.482Z,4.28
2022-11-04T01:28:54.706Z,7.13
2022-11-04T01:31:25.447Z,8.05
2022-11-04T01:33:55.995Z,8.90
2022-11-04T01:36:26.558Z,7.55
2022-11-04T01:38:57.504Z,9.77
2022-11-04T01:41:28.704Z,7.72
2022-11-04T01:44:16.608Z,10.68
2022-11-04T01:46:51.013Z,11.57
2022-11-04T01:49:50.670Z,13.90
2022-11-04T01:52:25.433Z,15.30
2022-11-04T01:54:55.921Z,13.05
2022-11-04T01:57:30.668Z,11.15
2022-11-04T02:00:01.604Z,12.32
2022-11-04T02:02:50.006Z,17.15
2022-11-04T02:05:18.647Z,12.10
2022-11-04T02:07:52.137Z,8.48
2022-11-04T02:10:23.547Z,7.40
2022-11-04T02:12:52.360Z,8.88
2022-11-04T02:15:40.662Z,6.80
2022-11-04T02:18:17.194Z,8.25
2022-11-04T02:20:59.996Z,7.88
2022-11-04T02:23:59.180Z,8.30
2022-11-04T02:27:18.087Z,8.18
2022-11-04T02:29:57.190Z,9.98
2022-11-04T02:32:51.772Z,9.20
2022-11-04T02:35:25.725Z,8.68
2022-11-04T02:38:24.212Z,10.10
2022-11-04T02:40:52.084Z,7.43
2022-11-04T02:43:36.316Z,8.15
2022-11-04T02:46:46.316Z,9.90
2022-11-04T02:49:21.018Z,9.10
2022-11-04T02:52:03.135Z,7.70
2022-11-04T02:54:42.301Z,6.90
2022-11-04T02:57:16.131Z,5.90
2022-11-04T03:00:02.053Z,6.93
2022-11-04T03:02:44.554Z,7.20
2022-11-04T03:05:20.447Z,8.13
2022-11-04T03:07:52.813Z,7.10
2022-11-04T03:10:29.000Z,9.15
2022-11-04T03:13:07.113Z,8.60
2022-11-04T03:15:38.824Z,8.85
2022-11-04T03:18:21.502Z,9.32
2022-11-04T03:20:51.244Z,11.30
2022-11-04T03:23:19.665Z,8.95
2022-11-04T03:25:50.959Z,12.27
2022-11-04T03:28:41.611Z,9.48
2022-11-04T03:31:18.035Z,12.05
2022-11-04T03:33:50.494Z,8.90
2022-11-04T03:36:19.815Z,10.75
2022-11-04T03:38:50.734Z,9.80
2022-11-04T03:41:25.814Z,10.80
2022-11-04T03:43:53.479Z,9.68
2022-11-04T03:46:22.544Z,10.52
2022-11-04T03:48:53.248Z,11.40
2022-11-04T03:51:21.030Z,12.15
2022-11-04T03:53:48.970Z,10.50
2022-11-04T03:56:35.520Z,12.88
2022-11-04T03:59:18.113Z,10.18
2022-11-04T04:01:57.382Z,11.85
2022-11-04T04:04:39.007Z,11.60
2022-11-04T04:07:16.859Z,13.43
2022-11-04T04:09:55.972Z,12.05
2022-11-04T04:15:20.024Z,13.68
2022-11-04T04:17:55.246Z,12.93
2022-11-04T04:20:25.686Z,14.48
2022-11-04T04:23:03.972Z,13.30
2022-11-04T04:25:51.333Z,11.75
2022-11-04T04:28:20.775Z,13.63
2022-11-04T04:30:48.976Z,12.95
2022-11-04T04:33:20.283Z,12.55
2022-11-04T04:35:54.380Z,13.63
2022-11-04T04:38:44.754Z,14.73
2022-11-04T04:41:39.572Z,16.98
2022-11-04T04:44:39.244Z,15.15
2022-11-04T04:47:09.633Z,12.30
2022-11-04T04:49:37.189Z,13.32
2022-11-04T04:52:08.240Z,12.93
2022-11-04T04:54:36.032Z,14.35
2022-11-04T04:57:03.909Z,11.55
2022-11-04T04:59:31.474Z,11.82
2022-11-04T05:01:59.339Z,15.32
2022-11-04T05:04:27.052Z,15.25
2022-11-04T05:06:55.826Z,12.85
2022-11-04T05:09:23.527Z,13.25
2022-11-04T05:11:51.424Z,13.60
2022-11-04T05:14:20.372Z,10.30
2022-11-04T05:16:47.953Z,10.90
2022-11-04T05:19:16.668Z,13.60
2022-11-04T05:21:44.230Z,13.00
2022-11-04T05:24:12.707Z,12.65
2022-11-04T05:26:40.577Z,13.73
2022-11-04T05:29:09.926Z,13.68
2022-11-04T05:31:37.759Z,10.45
2022-11-04T05:34:06.040Z,13.18
2022-11-04T05:36:34.145Z,16.30
2022-11-04T05:39:03.225Z,11.02
2022-11-04T05:41:31.057Z,12.55
2022-11-04T05:44:03.843Z,11.98
2022-11-04T05:46:31.940Z,11.43
2022-11-04T05:49:02.829Z,13.35
2022-11-04T05:51:30.690Z,13.25
2022-11-04T05:53:58.325Z,12.07
2022-11-04T05:56:26.410Z,12.43
2022-11-04T05:58:55.414Z,14.57
2022-11-04T06:01:30.323Z,14.05
2022-11-04T06:04:00.638Z,13.27
2022-11-04T06:06:31.370Z,16.00
2022-11-04T06:09:00.738Z,14.70
2022-11-04T06:11:30.397Z,14.20
2022-11-04T06:13:58.559Z,15.13
2022-11-04T06:16:29.551Z,15.95
2022-11-04T06:19:01.491Z,13.88
2022-11-04T06:21:34.162Z,20.10
2022-11-04T06:24:02.829Z,18.23
2022-11-04T06:26:31.446Z,14.52
2022-11-04T06:28:59.209Z,14.68
2022-11-04T06:31:26.929Z,26.60
2022-11-04T06:33:54.841Z,19.15
2022-11-04T06:36:22.827Z,16.50
2022-11-04T06:38:50.640Z,19.40
2022-11-04T06:41:19.245Z,18.52
2022-11-04T06:43:47.065Z,25.77
2022-11-04T06:46:42.004Z,19.27
2022-11-04T06:49:17.912Z,16.90
2022-11-04T06:51:48.375Z,18.88
2022-11-04T06:54:17.640Z,20.25
2022-11-04T06:56:46.254Z,19.65
2022-11-04T06:59:19.558Z,16.40
2022-11-04T07:01:49.651Z,18.90
2022-11-04T07:04:18.019Z,18.88
2022-11-04T07:06:46.647Z,23.17
2022-11-04T07:09:15.689Z,18.38
2022-11-04T07:11:45.108Z,18.55
2022-11-04T07:14:13.442Z,17.05
2022-11-04T07:16:41.405Z,19.27
2022-11-04T07:19:09.221Z,15.60
2022-11-04T07:21:36.838Z,20.85
2022-11-04T07:24:04.893Z,21.73
2022-11-04T07:26:32.404Z,19.15
2022-11-04T07:29:01.180Z,15.25
2022-11-04T07:31:28.941Z,18.50
2022-11-04T07:33:56.926Z,13.88
2022-11-04T07:36:24.434Z,15.00
2022-11-04T07:38:51.987Z,15.85
2022-11-04T07:41:19.802Z,20.90
2022-11-04T07:43:51.650Z,15.98
2022-11-04T07:46:20.525Z,19.63
2022-11-04T07:48:48.357Z,17.05
2022-11-04T07:51:18.086Z,64.20
2022-11-04T07:56:14.768Z,20.50
2022-11-04T07:58:43.272Z,17.52
2022-11-04T08:01:16.606Z,18.98
2022-11-04T08:03:44.543Z,18.65
2022-11-04T08:06:14.493Z,16.35
2022-11-04T08:08:44.880Z,18.98
2022-11-04T08:11:17.747Z,20.02
2022-11-04T08:13:47.686Z,22.02
2022-11-04T08:16:19.045Z,20.65
2022-11-04T08:18:52.342Z,19.23
2022-11-04T08:21:21.238Z,18.63
2022-11-04T08:23:51.473Z,24.90
2022-11-04T08:26:20.354Z,21.08
2022-11-04T08:28:48.269Z,23.67
2022-11-04T08:31:25.426Z,20.48
2022-11-04T08:33:54.864Z,18.65
2022-11-04T08:36:31.992Z,19.20
2022-11-04T08:39:03.253Z,19.23
2022-11-04T08:41:34.790Z,17.55
2022-11-04T08:44:04.355Z,16.75
2022-11-04T08:46:36.452Z,19.05
2022-11-04T08:49:09.695Z,17.27
2022-11-04T08:51:44.103Z,23.73
2022-11-04T08:54:12.217Z,17.05
2022-11-04T08:56:40.599Z,16.23
2022-11-04T08:59:08.648Z,19.17
2022-11-04T09:01:37.050Z,17.63
2022-11-04T09:04:05.893Z,20.63
2022-11-04T09:06:39.780Z,18.23
2022-11-04T09:09:09.893Z,20.05
2022-11-04T09:11:40.842Z,16.00
2022-11-04T09:14:11.838Z,15.68
2022-11-04T09:16:41.817Z,17.37
2022-11-04T09:19:19.207Z,16.80
2022-11-04T09:21:48.360Z,17.23
2022-11-04T09:24:15.926Z,20.88
2022-11-04T09:26:44.812Z,16.85
2022-11-04T09:29:12.351Z,15.70
2022-11-04T09:31:40.500Z,17.70
2022-11-04T09:34:09.229Z,18.38
2022-11-04T09:36:38.332Z,17.65
2022-11-04T09:39:06.087Z,13.48
2022-11-04T09:41:52.808Z,13.65
2022-11-04T09:44:29.283Z,18.17
2022-11-04T09:47:04.543Z,14.02
2022-11-04T09:49:39.446Z,14.70
2022-11-04T09:52:19.234Z,14.90
2022-11-04T09:55:12.194Z,14.40
2022-11-04T09:57:40.111Z,14.10
2022-11-04T10:00:16.143Z,15.07
2022-11-04T10:02:52.664Z,14.77
2022-11-04T10:06:00.387Z,14.73
2022-11-04T10:08:46.047Z,14.25
2022-11-04T10:11:36.230Z,11.75
2022-11-04T10:14:31.393Z,11.88
2022-11-04T10:17:14.192Z,10.70
2022-11-04T10:22:29.227Z,12.35
2022-11-04T10:25:16.587Z,10.35
2022-11-04T10:27:47.357Z,9.68
2022-11-04T10:30:21.530Z,8.90
2022-11-04T10:33:16.810Z,12.32
2022-11-04T10:35:50.113Z,13.18
2022-11-04T10:38:45.314Z,12.07
2022-11-04T10:41:30.165Z,16.40
2022-11-04T10:44:09.135Z,12.07
2022-11-04T10:46:44.196Z,11.43
2022-11-04T10:50:06.857Z,14.55
2022-11-04T10:52:35.479Z,9.07
2022-11-04T10:55:04.270Z,11.50
2022-11-04T10:57:32.975Z,10.50
2022-11-04T11:00:03.381Z,11.98
2022-11-04T11:02:38.618Z,11.52
2022-11-04T11:05:18.506Z,11.27
2022-11-04T11:07:54.856Z,10.02
2022-11-04T11:10:29.820Z,15.25
2022-11-04T11:13:08.206Z,8.70
2022-11-04T11:15:38.794Z,10.50
2022-11-04T11:18:06.539Z,9.95
2022-11-04T11:20:37.833Z,12.00
2022-11-04T11:23:10.140Z,10.10
2022-11-04T11:25:59.725Z,10.80
2022-11-04T11:28:27.996Z,8.53
2022-11-04T11:30:58.900Z,8.25
2022-11-04T11:33:38.288Z,8.60
2022-11-04T11:36:31.329Z,8.02
2022-11-04T11:39:01.426Z,9.00
2022-11-04T11:41:31.761Z,9.95
2022-11-04T11:44:07.802Z,8.10
2022-11-04T11:46:38.155Z,9.18
2022-11-04T11:49:22.890Z,9.20
2022-11-04T11:51:50.914Z,10.13
2022-11-04T11:54:33.874Z,9.57
2022-11-04T11:57:25.533Z,8.70
2022-11-04T12:03:03.117Z,10.70
2022-11-04T12:11:32.367Z,9.13
2022-11-04T12:14:05.899Z,9.25
2022-11-04T12:16:57.131Z,10.65
2022-11-04T12:19:37.919Z,10.95
2022-11-04T12:22:32.822Z,10.80
2022-11-04T12:25:23.010Z,9.85
2022-11-04T12:28:24.395Z,9.23
2022-11-04T12:31:17.638Z,8.70
2022-11-04T12:34:20.554Z,8.98
2022-11-04T12:37:04.334Z,12.73
2022-11-04T12:39:56.580Z,10.60
2022-11-04T12:42:51.299Z,9.93
2022-11-04T12:45:46.605Z,9.10
2022-11-04T12:48:55.893Z,8.95
2022-11-04T12:51:31.732Z,9.23
2022-11-04T12:54:23.753Z,6.57
2022-11-04T12:57:09.097Z,10.38
2022-11-04T13:00:06.400Z,8.95
2022-11-04T13:02:40.906Z,9.60
2022-11-04T13:05:13.997Z,7.82
2022-11-04T13:07:59.184Z,10.80
2022-11-04T13:10:55.829Z,7.85
2022-11-04T13:13:33.290Z,8.48
2022-11-04T13:16:12.467Z,8.00
2022-11-04T13:18:41.438Z,7.40
2022-11-04T13:21:18.508Z,6.93
2022-11-04T13:24:14.628Z,11.43
2022-11-04T13:26:42.533Z,7.63
2022-11-04T13:29:16.115Z,6.88
2022-11-04T13:31:51.273Z,6.88
2022-11-04T13:34:37.711Z,6.60
2022-11-04T13:37:16.880Z,6.47
2022-11-04T13:39:46.587Z,5.68
2022-11-04T13:43:27.119Z,6.43
2022-11-04T13:45:56.778Z,7.90
2022-11-04T13:48:29.182Z,12.57
2022-11-04T13:51:00.987Z,9.52
2022-11-04T13:53:57.913Z,8.85
2022-11-04T13:56:45.807Z,9.18
2022-11-04T13:59:34.028Z,12.82
2022-11-04T14:02:19.974Z,10.13
2022-11-04T14:04:47.918Z,9.45
2022-11-04T14:07:18.173Z,11.27
2022-11-04T14:09:54.809Z,12.45
2022-11-04T14:12:30.870Z,14.98
2022-11-04T14:15:10.837Z,19.38
2022-11-04T14:17:38.710Z,24.00
2022-11-04T14:20:06.682Z,24.75
2022-11-04T14:22:49.530Z,24.17
2022-11-04T14:25:41.344Z,26.10
2022-11-04T14:28:15.138Z,23.73
2022-11-04T14:30:53.831Z,28.65
2022-11-04T14:33:23.353Z,24.73
2022-11-04T14:35:53.813Z,22.10
2022-11-04T14:38:34.049Z,23.90
2022-11-04T14:41:22.849Z,20.52
2022-11-04T14:43:52.498Z,20.33
2022-11-04T14:46:40.626Z,18.52
2022-11-04T14:49:52.219Z,19.98
2022-11-04T14:52:46.253Z,16.00
2022-11-04T14:55:24.437Z,76.05
2022-11-04T14:58:13.808Z,19.80
2022-11-04T15:00:50.669Z,20.60
2022-11-04T15:04:08.827Z,16.60
2022-11-04T15:06:11.151Z,18.00
2022-11-04T15:11:17.724Z,19.77
2022-11-04T15:13:49.330Z,14.00
2022-11-04T15:16:28.802Z,14.35
2022-11-04T15:18:59.336Z,14.77
2022-11-04T15:21:32.034Z,14.57
2022-11-04T15:24:01.709Z,18.90
2022-11-04T15:26:34.949Z,16.88
2022-11-04T15:29:09.618Z,18.10
2022-11-04T15:31:50.634Z,13.57
2022-11-04T15:34:19.295Z,16.77
2022-11-04T15:36:49.418Z,14.02
2022-11-04T15:39:26.764Z,15.35
2022-11-04T15:42:18.339Z,14.88
2022-11-04T15:44:50.324Z,12.73
2022-11-04T15:47:18.180Z,12.68
2022-11-04T15:49:48.030Z,11.75
2022-11-04T15:54:51.798Z,13.68
2022-11-04T15:57:33.055Z,15.10
2022-11-04T16:00:07.372Z,17.35
2022-11-04T16:03:01.190Z,13.70
2022-11-04T16:05:33.401Z,13.18
2022-11-04T16:08:33.887Z,12.30
2022-11-04T16:11:16.797Z,13.32
2022-11-04T16:13:45.588Z,12.57
2022-11-04T16:16:27.901Z,13.60
2022-11-04T16:18:59.420Z,19.50
2022-11-04T16:21:33.528Z,12.70
2022-11-04T16:24:17.624Z,12.27
2022-11-04T16:26:46.841Z,12.35
2022-11-04T16:29:22.819Z,14.27
2022-11-04T16:32:08.531Z,12.95
2022-11-04T16:34:37.467Z,12.57
2022-11-04T16:37:05.191Z,11.50
2022-11-04T16:39:33.304Z,11.38
2022-11-04T16:42:00.969Z,11.60
2022-11-04T16:44:28.793Z,11.88
2022-11-04T16:46:59.556Z,10.75
2022-11-04T16:49:27.219Z,12.02
2022-11-04T16:51:57.089Z,11.30
2022-11-04T16:54:25.139Z,10.38
2022-11-04T16:56:54.564Z,10.73
2022-11-04T16:59:22.544Z,9.75
2022-11-04T17:01:50.201Z,12.57
2022-11-04T17:04:17.859Z,11.90
2022-11-04T17:06:46.401Z,12.05
2022-11-04T17:09:20.645Z,13.70
2022-11-04T17:11:49.427Z,12.80
2022-11-04T17:14:18.008Z,16.23
2022-11-04T17:16:46.848Z,10.60
2022-11-04T17:19:17.634Z,10.75
2022-11-04T17:21:47.278Z,12.60
2022-11-04T17:24:15.018Z,13.88
2022-11-04T17:26:43.816Z,15.35
2022-11-04T17:29:15.991Z,20.48
2022-11-04T17:31:45.446Z,14.23
2022-11-04T17:34:13.070Z,17.55
2022-11-04T17:36:41.692Z,16.58
2022-11-04T17:39:09.328Z,12.68
2022-11-04T17:41:55.615Z,15.52
2022-11-04T17:44:23.322Z,13.68
2022-11-04T17:46:51.618Z,13.45
2022-11-04T17:49:24.694Z,11.10
2022-11-04T17:51:58.589Z,11.57
2022-11-04T17:54:28.865Z,11.13
2022-11-04T17:56:57.779Z,12.98
2022-11-04T17:59:25.916Z,13.07
2022-11-04T18:01:53.918Z,11.75
2022-11-04T18:04:23.340Z,10.98
2022-11-04T18:06:51.276Z,13.25
2022-11-04T18:09:19.025Z,12.23
2022-11-04T18:12:06.336Z,11.43
2022-11-04T18:14:34.008Z,11.02
2022-11-04T18:17:03.165Z,11.57
2022-11-04T18:19:31.428Z,15.98
2022-11-04T18:22:00.886Z,13.05
2022-11-04T18:24:29.063Z,12.80
2022-11-04T18:26:59.469Z,13.83
2022-11-04T18:29:27.657Z,14.13
2022-11-04T18:31:55.898Z,14.25
2022-11-04T18:34:23.559Z,13.00
2022-11-04T18:36:51.559Z,13.05
2022-11-04T18:39:19.680Z,11.93
2022-11-04T18:41:47.445Z,13.63
2022-11-04T18:44:20.437Z,11.23
2022-11-04T18:46:49.762Z,17.55
2022-11-04T18:49:18.417Z,14.80
2022-11-04T18:51:47.147Z,12.52
2022-11-04T18:54:15.166Z,11.93
2022-11-04T18:56:42.787Z,10.13
2022-11-04T18:59:12.954Z,11.32
2022-11-04T19:01:42.321Z,12.52
2022-11-04T19:04:10.167Z,13.80
2022-11-04T19:06:41.792Z,14.05
2022-11-04T19:09:45.277Z,13.70
2022-11-04T19:12:19.003Z,15.20
2022-11-04T19:14:46.773Z,15.23
2022-11-04T19:17:15.055Z,17.42
2022-11-04T19:19:43.681Z,13.40
2022-11-04T19:22:11.824Z,13.95
2022-11-04T19:24:39.894Z,14.43
2022-11-04T19:27:08.655Z,13.65
2022-11-04T19:29:36.339Z,16.80
2022-11-04T19:32:06.260Z,14.43
2022-11-04T19:34:37.470Z,17.25
2022-11-04T19:37:05.347Z,20.35
2022-11-04T19:39:32.921Z,13.98
2022-11-04T19:42:19.190Z,16.58
2022-11-04T19:44:46.867Z,15.05
2022-11-04T19:47:14.770Z,20.05
2022-11-04T19:49:42.455Z,18.45
2022-11-04T19:52:10.012Z,19.45
2022-11-04T19:54:37.673Z,24.88
2022-11-04T19:57:05.915Z,27.65
2022-11-04T19:59:33.563Z,26.65
2022-11-04T20:02:01.472Z,30.33
2022-11-04T20:04:29.612Z,31.15
2022-11-04T20:06:57.143Z,31.40
2022-11-04T20:09:26.179Z,28.08
2022-11-04T20:12:12.257Z,30.10
2022-11-04T20:14:42.542Z,32.72
2022-11-04T20:17:12.557Z,34.97
2022-11-04T20:19:40.391Z,32.35
2022-11-04T20:22:08.036Z,36.85
2022-11-04T20:24:35.718Z,43.42
2022-11-04T20:27:03.560Z,35.92
2022-11-04T20:29:31.367Z,47.47
2022-11-04T20:31:59.212Z,43.17
2022-11-04T20:34:32.553Z,34.47
2022-11-04T20:37:01.094Z,31.85
2022-11-04T20:39:28.913Z,33.95
2022-11-04T20:41:56.736Z,38.45
2022-11-04T20:44:24.838Z,37.97
2022-11-04T20:46:52.523Z,38.75
2022-11-04T20:49:20.252Z,30.88
2022-11-04T20:51:54.645Z,32.08
2022-11-04T20:54:23.475Z,31.65
2022-11-04T20:56:51.867Z,34.35
2022-11-04T20:59:19.572Z,36.28
2022-11-04T21:01:48.794Z,32.13
2022-11-04T21:04:20.781Z,32.95
2022-11-04T21:06:51.295Z,35.10
2022-11-04T21:09:21.267Z,37.55
2022-11-04T21:11:52.938Z,37.17
2022-11-04T21:14:21.943Z,43.03
2022-11-04T21:16:50.059Z,35.30
2022-11-04T21:19:17.907Z,39.50
2022-11-04T21:21:46.918Z,39.83
2022-11-04T21:24:15.919Z,37.60
2022-11-04T21:26:44.501Z,39.70
2022-11-04T21:29:15.268Z,37.35
2022-11-04T21:31:44.602Z,38.97
2022-11-04T21:34:12.562Z,38.53
2022-11-04T21:36:40.642Z,36.83
2022-11-04T21:39:11.165Z,33.22
2022-11-04T21:41:39.360Z,36.45
2022-11-04T21:44:09.963Z,35.08
2022-11-04T21:46:38.200Z,34.15
2022-11-04T21:49:06.221Z,36.13
2022-11-04T21:51:34.861Z,33.90
2022-11-04T21:54:06.311Z,33.30
2022-11-04T21:56:34.826Z,36.90
2022-11-04T21:59:03.453Z,37.78
2022-11-04T22:01:33.124Z,46.70
2022-11-04T22:04:02.000Z,35.17
2022-11-04T22:06:34.622Z,37.13
2022-11-04T22:09:07.119Z,35.67
2022-11-04T22:11:37.380Z,35.38
2022-11-04T22:14:08.250Z,40.83
2022-11-04T22:16:38.824Z,32.50
2022-11-04T22:19:13.686Z,39.30
2022-11-04T22:21:43.898Z,35.15
2022-11-04T22:24:13.331Z,37.83
2022-11-04T22:26:41.256Z,35.53
2022-11-04T22:29:09.463Z,33.97
2022-11-04T22:31:41.147Z,37.47
2022-11-04T22:34:11.513Z,35.83
2022-11-04T22:36:40.305Z,40.85
2022-11-04T22:39:15.031Z,37.85
2022-11-04T22:41:46.363Z,40.88
2022-11-04T22:44:15.162Z,43.58
2022-11-04T22:46:42.956Z,41.50
2022-11-04T22:49:13.071Z,34.80
2022-11-04T22:51:42.212Z,39.83
2022-11-04T22:54:10.374Z,35.22
2022-11-04T22:56:38.159Z,39.20
2022-11-04T22:59:05.883Z,43.60
2022-11-04T23:01:34.167Z,37.90
2022-11-04T23:04:02.165Z,38.63
2022-11-04T23:06:30.281Z,39.00
2022-11-04T23:09:01.151Z,36.78
2022-11-04T23:11:49.432Z,36.85
2022-11-04T23:14:40.125Z,39.28
2022-11-04T23:17:38.571Z,42.20
2022-11-04T23:20:09.924Z,38.63
2022-11-04T23:22:56.351Z,37.38
2022-11-04T23:25:24.893Z,36.83
2022-11-04T23:28:13.617Z,33.15
2022-11-04T23:30:44.603Z,31.77
2022-11-04T23:33:15.265Z,35.28
2022-11-04T23:36:06.988Z,37.60
2022-11-04T23:38:35.723Z,34.17
2022-11-04T23:41:25.390Z,33.92
2022-11-04T23:43:53.669Z,43.38
2022-11-04T23:49:30.961Z,38.40
2022-11-04T23:52:17.544Z,39.75
2022-11-04T23:55:03.628Z,38.45
2022-11-04T23:57:50.190Z,46.97
